createdAt,value
2022-12-25T00:01:55.796Z,100204.89
2022-12-25T00:04:23.487Z,100206.14
2022-12-25T00:06:51.240Z,100215.41
2022-12-25T00:09:18.989Z,100206.73
2022-12-25T00:11:46.753Z,100206.42
2022-12-25T00:14:14.495Z,100204.35
2022-12-25T00:16:42.317Z,100208.02
2022-12-25T00:19:10.212Z,100212.99
2022-12-25T00:21:37.931Z,100215.08
2022-12-25T00:24:05.979Z,100223.60
2022-12-25T00:26:33.669Z,100228.77
2022-12-25T00:29:02.510Z,100227.89
2022-12-25T00:31:30.297Z,100229.89
2022-12-25T00:33:58.119Z,100238.90
2022-12-25T00:36:25.846Z,100241.77
2022-12-25T00:38:53.554Z,100251.00
2022-12-25T00:41:39.639Z,100258.59
2022-12-25T00:44:08.817Z,100262.09
2022-12-25T00:46:37.291Z,100265.33
2022-12-25T00:49:06.568Z,100265.91
2022-12-25T00:51:34.293Z,100269.84
2022-12-25T00:54:02.535Z,100275.23
2022-12-25T00:56:30.251Z,100278.13
2022-12-25T00:58:57.946Z,100279.66
2022-12-25T01:01:25.807Z,100284.59
2022-12-25T01:03:53.608Z,100289.86
2022-12-25T01:06:21.309Z,100294.08
2022-12-25T01:09:05.070Z,100295.57
2022-12-25T01:11:32.791Z,100296.33
2022-12-25T01:14:00.579Z,100283.97
2022-12-25T01:16:28.816Z,100279.63
2022-12-25T01:18:56.976Z,100276.56
2022-12-25T01:21:24.707Z,100276.09
2022-12-25T01:23:53.493Z,100277.65
2022-12-25T01:26:23.306Z,100285.11
2022-12-25T01:28:51.757Z,100287.00
2022-12-25T01:31:22.473Z,100282.09
2022-12-25T01:33:50.973Z,100282.44
2022-12-25T01:36:20.066Z,100286.61
2022-12-25T01:38:48.034Z,100285.52
2022-12-25T01:41:18.186Z,100285.90
2022-12-25T01:44:07.946Z,100285.88
2022-12-25T01:46:36.421Z,100289.41
2022-12-25T01:49:09.540Z,100288.64
2022-12-25T01:51:43.242Z,100292.91
2022-12-25T01:54:36.976Z,100298.52
2022-12-25T01:57:09.407Z,100300.13
2022-12-25T01:59:37.400Z,100300.43
2022-12-25T02:02:05.503Z,100297.95
2022-12-25T02:04:40.256Z,100296.57
2022-12-25T02:07:13.274Z,100297.92
2022-12-25T02:09:41.920Z,100300.73
2022-12-25T02:12:15.314Z,100304.27
2022-12-25T02:14:43.343Z,100308.40
2022-12-25T02:17:38.852Z,100310.42
2022-12-25T02:20:38.413Z,100301.52
2022-12-25T02:23:28.073Z,100302.75
2022-12-25T02:26:14.886Z,100294.16
2022-12-25T02:28:58.552Z,100286.95
2022-12-25T02:31:35.409Z,100283.38
2022-12-25T02:34:32.707Z,100283.37
2022-12-25T02:37:38.788Z,100279.10
2022-12-25T02:40:17.474Z,100281.25
2022-12-25T02:43:15.984Z,100281.16
2022-12-25T02:46:20.530Z,100288.02
2022-12-25T02:49:07.063Z,100288.90
2022-12-25T02:51:54.819Z,100288.56
2022-12-25T02:54:44.601Z,100287.57
2022-12-25T02:57:31.015Z,100292.70
2022-12-25T03:00:16.901Z,100295.01
2022-12-25T03:03:02.876Z,100295.36
2022-12-25T03:05:48.984Z,100297.30
2022-12-25T03:08:22.700Z,100292.92
2022-12-25T03:11:15.532Z,100291.54
2022-12-25T03:13:46.580Z,100292.17
2022-12-25T03:16:30.452Z,100293.92
2022-12-25T03:18:59.573Z,100299.13
2022-12-25T03:21:43.263Z,100301.61
2022-12-25T03:24:26.867Z,100301.11
2022-12-25T03:26:56.693Z,100303.66
2022-12-25T03:29:47.429Z,100306.05
2022-12-25T03:32:29.234Z,100309.66
2022-12-25T03:35:32.833Z,100303.38
2022-12-25T03:38:32.217Z,100301.95
2022-12-25T03:41:31.840Z,100305.81
2022-12-25T03:44:31.362Z,100309.73
2022-12-25T03:47:29.742Z,100309.71
2022-12-25T03:50:45.310Z,100311.98
2022-12-25T03:53:37.668Z,100316.77
2022-12-25T03:56:21.631Z,100320.86
2022-12-25T03:59:08.115Z,100314.61
2022-12-25T04:01:51.966Z,100319.73
2022-12-25T04:04:35.793Z,100317.74
2022-12-25T04:07:19.416Z,100318.09
2022-12-25T04:10:03.023Z,100318.02
2022-12-25T04:12:46.716Z,100319.66
2022-12-25T04:15:30.381Z,100322.70
2022-12-25T04:18:13.041Z,100324.21
2022-12-25T04:20:56.707Z,100326.02
2022-12-25T04:23:40.301Z,100332.86
2022-12-25T04:26:22.891Z,100337.88
2022-12-25T04:29:06.493Z,100334.01
2022-12-25T04:31:50.237Z,100336.15
2022-12-25T04:34:33.006Z,100336.66
2022-12-25T04:37:00.716Z,100340.42
2022-12-25T04:39:28.436Z,100335.37
2022-12-25T04:41:58.485Z,100340.94
2022-12-25T04:44:26.571Z,100340.09
2022-12-25T04:46:54.402Z,100349.79
2022-12-25T04:49:22.253Z,100357.28
2022-12-25T04:51:49.934Z,100352.41
2022-12-25T04:54:17.603Z,100351.12
2022-12-25T04:56:46.125Z,100352.66
2022-12-25T04:59:14.032Z,100352.92
2022-12-25T05:01:41.835Z,100352.63
2022-12-25T05:04:09.654Z,100352.87
2022-12-25T05:06:37.433Z,100353.82
2022-12-25T05:09:05.148Z,100350.73
2022-12-25T05:11:32.888Z,100343.11
2022-12-25T05:14:00.582Z,100340.25
2022-12-25T05:16:28.580Z,100335.36
2022-12-25T05:18:56.368Z,100337.91
2022-12-25T05:21:24.104Z,100341.16
2022-12-25T05:23:53.222Z,100351.17
2022-12-25T05:26:23.825Z,100349.27
2022-12-25T05:28:51.834Z,100354.38
2022-12-25T05:31:20.552Z,100358.70
2022-12-25T05:33:52.392Z,100357.70
2022-12-25T05:36:20.198Z,100355.98
2022-12-25T05:38:47.942Z,100354.70
2022-12-25T05:41:15.711Z,100361.73
2022-12-25T05:43:43.453Z,100376.16
2022-12-25T05:46:13.162Z,100382.97
2022-12-25T05:48:41.064Z,100381.77
2022-12-25T05:51:11.932Z,100384.59
2022-12-25T05:53:40.704Z,100388.55
2022-12-25T05:56:09.553Z,100396.22
2022-12-25T05:58:39.288Z,100397.18
2022-12-25T06:01:12.307Z,100400.23
2022-12-25T06:03:40.219Z,100405.95
2022-12-25T06:06:08.211Z,100399.38
2022-12-25T06:08:36.227Z,100405.55
2022-12-25T06:11:05.505Z,100412.62
2022-12-25T06:13:34.431Z,100416.59
2022-12-25T06:16:07.441Z,100414.61
2022-12-25T06:18:42.933Z,100418.11
2022-12-25T06:21:12.879Z,100423.88
2022-12-25T06:23:41.742Z,100426.71
2022-12-25T06:26:12.899Z,100431.70
2022-12-25T06:28:41.312Z,100436.23
2022-12-25T06:31:15.550Z,100440.27
2022-12-25T06:33:44.298Z,100436.23
2022-12-25T06:36:19.235Z,100435.14
2022-12-25T06:38:47.351Z,100436.69
2022-12-25T06:41:21.058Z,100443.27
2022-12-25T06:43:57.006Z,100452.31
2022-12-25T06:46:28.142Z,100458.07
2022-12-25T06:48:57.488Z,100464.74
2022-12-25T06:51:27.790Z,100467.68
2022-12-25T06:53:56.279Z,100471.77
2022-12-25T06:56:27.535Z,100480.40
2022-12-25T06:59:01.074Z,100489.00
2022-12-25T07:01:32.120Z,100487.05
2022-12-25T07:04:06.585Z,100493.20
2022-12-25T07:06:34.622Z,100504.23
2022-12-25T07:09:02.449Z,100505.58
2022-12-25T07:11:30.200Z,100510.38
2022-12-25T07:13:57.954Z,100510.68
2022-12-25T07:16:25.693Z,100510.61
2022-12-25T07:18:53.406Z,100508.48
2022-12-25T07:21:21.262Z,100511.97
2022-12-25T07:23:50.383Z,100516.39
2022-12-25T07:26:20.807Z,100517.48
2022-12-25T07:28:48.481Z,100522.17
2022-12-25T07:31:17.955Z,100522.17
2022-12-25T07:33:45.756Z,100525.21
2022-12-25T07:36:14.721Z,100533.84
2022-12-25T07:38:42.896Z,100539.00
2022-12-25T07:41:13.076Z,100544.38
2022-12-25T07:43:41.435Z,100556.14
2022-12-25T07:46:10.592Z,100566.83
2022-12-25T07:48:38.528Z,100570.95
2022-12-25T07:51:10.244Z,100568.88
2022-12-25T07:53:38.821Z,100569.75
2022-12-25T07:56:10.945Z,100569.84
2022-12-25T07:58:39.211Z,100577.39
2022-12-25T08:01:19.852Z,100578.34
2022-12-25T08:03:56.160Z,100588.78
2022-12-25T08:06:29.754Z,100593.25
2022-12-25T08:09:07.122Z,100602.61
2022-12-25T08:11:35.621Z,100599.17
2022-12-25T08:14:07.061Z,100600.38
2022-12-25T08:16:35.690Z,100597.29
2022-12-25T08:19:03.482Z,100598.11
2022-12-25T08:21:31.160Z,100597.19
2022-12-25T08:23:58.847Z,100598.27
2022-12-25T08:26:26.535Z,100593.04
2022-12-25T08:28:54.511Z,100599.56
2022-12-25T08:31:25.012Z,100608.92
2022-12-25T08:33:55.686Z,100610.98
2022-12-25T08:36:24.214Z,100611.17
2022-12-25T08:38:55.717Z,100605.73
2022-12-25T08:41:26.904Z,100604.73
2022-12-25T08:43:54.638Z,100602.21
2022-12-25T08:46:22.535Z,100606.38
2022-12-25T08:48:50.555Z,100606.27
2022-12-25T08:51:20.858Z,100608.23
2022-12-25T08:53:50.210Z,100606.11
2022-12-25T08:56:18.558Z,100606.21
2022-12-25T08:58:46.942Z,100607.48
2022-12-25T09:01:14.746Z,100600.95
2022-12-25T09:03:43.416Z,100598.92
2022-12-25T09:06:16.238Z,100597.15
2022-12-25T09:08:49.087Z,100594.22
2022-12-25T09:11:19.452Z,100588.75
2022-12-25T09:13:48.349Z,100585.44
2022-12-25T09:16:20.370Z,100583.70
2022-12-25T09:18:48.748Z,100586.66
2022-12-25T09:21:17.477Z,100584.61
2022-12-25T09:23:45.291Z,100580.10
2022-12-25T09:26:15.577Z,100585.42
2022-12-25T09:28:50.646Z,100591.47
2022-12-25T09:31:21.438Z,100596.73
2022-12-25T09:33:50.391Z,100600.94
2022-12-25T09:36:18.285Z,100602.91
2022-12-25T09:38:45.996Z,100596.34
2022-12-25T09:41:19.281Z,100590.23
2022-12-25T09:43:54.986Z,100591.52
2022-12-25T09:46:30.172Z,100592.70
2022-12-25T09:49:34.721Z,100597.99
2022-12-25T09:52:11.821Z,100602.59
2022-12-25T09:54:45.619Z,100608.06
2022-12-25T09:57:14.414Z,100608.96
2022-12-25T09:59:44.729Z,100609.33
2022-12-25T10:02:43.439Z,100613.42
2022-12-25T10:05:19.391Z,100618.48
2022-12-25T10:07:59.697Z,100624.84
2022-12-25T10:10:43.304Z,100628.35
2022-12-25T10:13:26.930Z,100621.11
2022-12-25T10:16:26.173Z,100619.95
2022-12-25T10:19:23.203Z,100629.10
2022-12-25T10:21:58.398Z,100637.27
2022-12-25T10:24:26.098Z,100634.14
2022-12-25T10:26:56.319Z,100633.39
2022-12-25T10:29:24.002Z,100635.90
2022-12-25T10:31:55.335Z,100633.70
2022-12-25T10:34:23.851Z,100631.86
2022-12-25T10:36:52.404Z,100633.31
2022-12-25T10:39:23.466Z,100637.00
2022-12-25T10:42:10.175Z,100631.46
2022-12-25T10:44:37.983Z,100623.83
2022-12-25T10:47:05.773Z,100616.64
2022-12-25T10:49:37.764Z,100615.84
2022-12-25T10:52:23.542Z,100612.77
2022-12-25T10:54:52.595Z,100609.02
2022-12-25T10:57:22.980Z,100609.66
2022-12-25T10:59:55.947Z,100608.22
2022-12-25T11:02:36.506Z,100603.84
2022-12-25T11:05:10.138Z,100600.49
2022-12-25T11:07:50.804Z,100601.58
2022-12-25T11:10:21.511Z,100604.16
2022-12-25T11:12:49.685Z,100606.40
2022-12-25T11:15:36.536Z,100609.73
2022-12-25T11:18:25.396Z,100611.45
2022-12-25T11:21:03.790Z,100609.95
2022-12-25T11:23:33.103Z,100609.08
2022-12-25T11:26:06.402Z,100615.77
2022-12-25T11:28:36.937Z,100613.15
2022-12-25T11:31:22.159Z,100608.20
2022-12-25T11:34:19.098Z,100611.89
2022-12-25T11:36:52.456Z,100608.51
2022-12-25T11:39:37.229Z,100606.08
2022-12-25T11:42:21.387Z,100607.58
2022-12-25T11:44:52.777Z,100607.39
2022-12-25T11:47:36.422Z,100603.14
2022-12-25T11:50:23.552Z,100608.17
2022-12-25T11:52:53.148Z,100604.73
2022-12-25T11:55:29.945Z,100611.48
2022-12-25T11:58:04.457Z,100612.89
2022-12-25T12:00:35.320Z,100613.92
2022-12-25T12:03:06.452Z,100615.84
2022-12-25T12:05:43.036Z,100608.33
2022-12-25T12:08:11.487Z,100611.52
2022-12-25T12:11:01.116Z,100616.77
2022-12-25T12:13:57.382Z,100615.75
2022-12-25T12:16:25.434Z,100618.60
2022-12-25T12:18:53.477Z,100618.59
2022-12-25T12:21:23.898Z,100616.81
2022-12-25T12:24:16.950Z,100611.94
2022-12-25T12:26:47.255Z,100605.63
2022-12-25T12:29:43.119Z,100602.70
2022-12-25T12:32:28.045Z,100602.58
2022-12-25T12:34:56.875Z,100603.62
2022-12-25T12:37:30.401Z,100608.13
2022-12-25T12:39:59.030Z,100598.90
2022-12-25T12:42:31.328Z,100593.25
2022-12-25T12:45:10.359Z,100592.33
2022-12-25T12:47:41.987Z,100585.25
2022-12-25T12:50:25.626Z,100581.91
2022-12-25T12:52:53.574Z,100580.91
2022-12-25T12:55:32.679Z,100581.34
2022-12-25T12:58:06.118Z,100582.33
2022-12-25T13:00:47.741Z,100595.38
2022-12-25T13:03:40.881Z,100598.05
2022-12-25T13:06:17.358Z,100600.96
2022-12-25T13:09:02.916Z,100597.73
2022-12-25T13:11:39.898Z,100600.66
2022-12-25T13:14:16.078Z,100605.23
2022-12-25T13:16:46.389Z,100610.17
2022-12-25T13:19:18.067Z,100610.73
2022-12-25T13:22:03.661Z,100608.61
2022-12-25T13:24:35.210Z,100605.59
2022-12-25T13:27:22.870Z,100607.46
2022-12-25T13:29:50.702Z,100605.04
2022-12-25T13:32:37.705Z,100602.63
2022-12-25T13:35:12.696Z,100599.45
2022-12-25T13:37:40.636Z,100601.63
2022-12-25T13:40:21.188Z,100602.94
2022-12-25T13:42:50.125Z,100607.39
2022-12-25T13:45:27.562Z,100599.31
2022-12-25T13:47:56.257Z,100605.27
2022-12-25T13:50:30.410Z,100608.98
2022-12-25T13:53:12.398Z,100614.34
2022-12-25T13:55:42.329Z,100616.44
2022-12-25T13:58:24.698Z,100620.02
2022-12-25T14:00:55.506Z,100620.36
2022-12-25T14:03:46.034Z,100619.58
2022-12-25T14:06:25.468Z,100617.01
2022-12-25T14:08:55.552Z,100612.07
2022-12-25T14:11:26.228Z,100611.84
2022-12-25T14:14:00.193Z,100612.42
2022-12-25T14:16:29.013Z,100617.89
2022-12-25T14:19:02.530Z,100622.54
2022-12-25T14:21:38.548Z,100621.23
2022-12-25T14:24:16.687Z,100620.95
2022-12-25T14:26:44.781Z,100627.20
2022-12-25T14:29:18.631Z,100631.80
2022-12-25T14:31:48.637Z,100642.20
2022-12-25T14:34:24.051Z,100647.59
2022-12-25T14:36:53.262Z,100654.59
2022-12-25T14:39:38.217Z,100656.80
2022-12-25T14:42:23.299Z,100655.48
2022-12-25T14:45:01.414Z,100653.66
2022-12-25T14:47:30.623Z,100655.05
2022-12-25T14:49:59.687Z,100652.14
2022-12-25T14:52:44.869Z,100656.66
2022-12-25T14:55:21.840Z,100654.04
2022-12-25T14:58:04.411Z,100649.48
2022-12-25T15:00:36.335Z,100646.71
2022-12-25T15:03:21.121Z,100650.27
2022-12-25T15:05:59.720Z,100646.48
2022-12-25T15:08:29.549Z,100647.89
2022-12-25T15:11:01.107Z,100649.23
2022-12-25T15:13:31.321Z,100651.01
2022-12-25T15:16:14.459Z,100653.39
2022-12-25T15:18:45.777Z,100648.62
2022-12-25T15:21:17.676Z,100640.13
2022-12-25T15:23:45.455Z,100634.50
2022-12-25T15:26:14.169Z,100637.75
2022-12-25T15:28:41.973Z,100636.59
2022-12-25T15:31:27.387Z,100639.90
2022-12-25T15:33:58.008Z,100642.83
2022-12-25T15:36:26.672Z,100638.02
2022-12-25T15:38:55.555Z,100631.71
2022-12-25T15:41:55.393Z,100630.48
2022-12-25T15:44:24.161Z,100626.59
2022-12-25T15:46:52.425Z,100625.44
2022-12-25T15:49:20.223Z,100623.91
2022-12-25T15:51:47.974Z,100624.67
2022-12-25T15:54:15.665Z,100624.16
2022-12-25T15:56:46.575Z,100627.13
2022-12-25T15:59:16.595Z,100629.08
2022-12-25T16:01:52.813Z,100629.15
2022-12-25T16:04:22.034Z,100630.75
2022-12-25T16:06:50.695Z,100628.22
2022-12-25T16:09:22.906Z,100636.76
2022-12-25T16:11:50.927Z,100643.52
2022-12-25T16:14:19.454Z,100649.80
2022-12-25T16:16:47.217Z,100648.07
2022-12-25T16:19:15.131Z,100655.76
2022-12-25T16:21:45.500Z,100660.43
2022-12-25T16:24:14.098Z,100659.78
2022-12-25T16:26:43.158Z,100652.90
2022-12-25T16:29:11.190Z,100647.23
2022-12-25T16:31:40.026Z,100646.10
2022-12-25T16:34:08.764Z,100646.17
2022-12-25T16:36:36.598Z,100644.16
2022-12-25T16:39:05.026Z,100643.55
2022-12-25T16:41:32.734Z,100640.00
2022-12-25T16:44:08.987Z,100637.29
2022-12-25T16:46:37.610Z,100628.84
2022-12-25T16:49:05.985Z,100629.28
2022-12-25T16:51:33.703Z,100629.12
2022-12-25T16:54:01.490Z,100629.34
2022-12-25T16:56:30.722Z,100629.31
2022-12-25T16:59:00.846Z,100629.83
2022-12-25T17:01:29.643Z,100627.91
2022-12-25T17:04:01.184Z,100626.81
2022-12-25T17:06:29.425Z,100622.98
2022-12-25T17:08:59.481Z,100622.95
2022-12-25T17:11:29.936Z,100626.17
2022-12-25T17:14:03.538Z,100621.05
2022-12-25T17:16:34.332Z,100618.17
2022-12-25T17:19:07.796Z,100616.34
2022-12-25T17:21:38.108Z,100610.49
2022-12-25T17:24:06.537Z,100605.23
2022-12-25T17:26:34.359Z,100596.58
2022-12-25T17:29:02.293Z,100598.63
2022-12-25T17:31:30.148Z,100594.49
2022-12-25T17:34:00.116Z,100598.67
2022-12-25T17:36:28.096Z,100601.45
2022-12-25T17:38:55.921Z,100604.00
2022-12-25T17:41:23.642Z,100603.52
2022-12-25T17:43:51.424Z,100606.42
2022-12-25T17:46:22.327Z,100602.80
2022-12-25T17:48:51.589Z,100597.84
2022-12-25T17:51:22.057Z,100596.41
2022-12-25T17:53:52.327Z,100598.20
2022-12-25T17:56:21.019Z,100594.29
2022-12-25T17:58:57.114Z,100594.61
2022-12-25T18:01:26.584Z,100593.60
2022-12-25T18:03:55.730Z,100586.27
2022-12-25T18:06:25.382Z,100585.30
2022-12-25T18:08:54.476Z,100587.23
2022-12-25T18:11:27.447Z,100593.41
2022-12-25T18:13:57.920Z,100595.30
2022-12-25T18:16:27.104Z,100591.78
2022-12-25T18:18:54.968Z,100593.13
2022-12-25T18:21:23.151Z,100591.80
2022-12-25T18:23:51.148Z,100595.50
2022-12-25T18:26:20.105Z,100589.80
2022-12-25T18:28:49.124Z,100588.19
2022-12-25T18:31:21.348Z,100586.03
2022-12-25T18:33:50.081Z,100584.30
2022-12-25T18:36:22.060Z,100582.71
2022-12-25T18:38:51.213Z,100575.11
2022-12-25T18:41:21.161Z,100573.16
2022-12-25T18:43:54.094Z,100571.13
2022-12-25T18:46:26.225Z,100571.56
2022-12-25T18:48:56.777Z,100571.61
2022-12-25T18:51:26.721Z,100565.21
2022-12-25T18:54:01.419Z,100558.78
2022-12-25T18:56:29.250Z,100557.96
2022-12-25T18:58:59.585Z,100548.08
2022-12-25T19:01:27.457Z,100537.69
2022-12-25T19:04:02.066Z,100538.44
2022-12-25T19:06:33.308Z,100536.71
2022-12-25T19:09:09.442Z,100538.13
2022-12-25T19:11:46.059Z,100532.45
2022-12-25T19:14:15.217Z,100533.20
2022-12-25T19:16:43.111Z,100536.65
2022-12-25T19:19:11.193Z,100536.73
2022-12-25T19:21:38.935Z,100525.99
2022-12-25T19:24:07.153Z,100528.23
2022-12-25T19:26:35.982Z,100524.48
2022-12-25T19:29:03.774Z,100529.73
2022-12-25T19:31:31.569Z,100531.39
2022-12-25T19:33:59.375Z,100521.23
2022-12-25T19:36:27.114Z,100521.34
2022-12-25T19:38:54.793Z,100515.23
2022-12-25T19:41:22.502Z,100509.89
2022-12-25T19:43:50.526Z,100510.46
2022-12-25T19:46:25.960Z,100513.48
2022-12-25T19:48:55.240Z,100510.91
2022-12-25T19:51:27.079Z,100503.08
2022-12-25T19:53:58.607Z,100506.56
2022-12-25T19:56:28.271Z,100506.90
2022-12-25T19:58:56.975Z,100502.81
2022-12-25T20:01:27.021Z,100508.03
2022-12-25T20:03:54.931Z,100503.34
2022-12-25T20:06:29.878Z,100498.50
2022-12-25T20:09:01.948Z,100492.86
2022-12-25T20:11:31.105Z,100485.98
2022-12-25T20:13:58.820Z,100487.04
2022-12-25T20:16:26.881Z,100483.70
2022-12-25T20:18:55.846Z,100480.98
2022-12-25T20:21:24.171Z,100481.88
2022-12-25T20:23:53.317Z,100487.36
2022-12-25T20:26:24.012Z,100489.44
2022-12-25T20:28:52.518Z,100483.95
2022-12-25T20:31:20.217Z,100476.98
2022-12-25T20:33:48.093Z,100471.98
2022-12-25T20:36:18.319Z,100468.56
2022-12-25T20:38:46.125Z,100470.01
2022-12-25T20:41:26.895Z,100468.81
2022-12-25T20:43:56.678Z,100476.14
2022-12-25T20:46:25.557Z,100473.56
2022-12-25T20:48:54.102Z,100472.58
2022-12-25T20:51:24.694Z,100467.46
2022-12-25T20:53:53.966Z,100460.77
2022-12-25T20:56:24.481Z,100456.55
2022-12-25T20:58:56.502Z,100442.82
2022-12-25T21:01:24.957Z,100437.66
2022-12-25T21:03:53.455Z,100434.75
2022-12-25T21:06:21.912Z,100432.40
2022-12-25T21:08:49.704Z,100429.32
2022-12-25T21:11:17.961Z,100420.97
2022-12-25T21:13:46.569Z,100419.61
2022-12-25T21:16:18.677Z,100420.86
2022-12-25T21:18:48.187Z,100419.90
2022-12-25T21:21:16.031Z,100414.83
2022-12-25T21:23:44.188Z,100418.45
2022-12-25T21:26:27.741Z,100416.08
2022-12-25T21:28:57.833Z,100407.63
2022-12-25T21:31:26.230Z,100400.76
2022-12-25T21:33:55.829Z,100392.97
2022-12-25T21:36:29.973Z,100395.27
2022-12-25T21:39:00.451Z,100396.44
2022-12-25T21:41:29.798Z,100396.55
2022-12-25T21:43:57.749Z,100393.41
2022-12-25T21:46:26.186Z,100388.23
2022-12-25T21:48:54.690Z,100385.20
2022-12-25T21:51:41.365Z,100382.86
2022-12-25T21:54:09.989Z,100373.13
2022-12-25T21:56:44.182Z,100354.13
2022-12-25T21:59:16.284Z,100346.73
2022-12-25T22:01:44.812Z,100342.36
2022-12-25T22:04:14.613Z,100341.73
2022-12-25T22:06:59.264Z,100336.26
2022-12-25T22:09:27.021Z,100338.02
2022-12-25T22:12:10.698Z,100333.16
2022-12-25T22:14:56.282Z,100336.43
2022-12-25T22:17:44.173Z,100333.60
2022-12-25T22:20:30.627Z,100330.55
2022-12-25T22:22:58.541Z,100324.45
2022-12-25T22:25:26.640Z,100317.38
2022-12-25T22:27:54.397Z,100314.88
2022-12-25T22:30:27.850Z,100304.02
2022-12-25T22:32:56.104Z,100292.73
2022-12-25T22:35:24.375Z,100281.80
2022-12-25T22:37:53.812Z,100277.42
2022-12-25T22:40:21.909Z,100281.51
2022-12-25T22:42:54.366Z,100285.38
2022-12-25T22:45:23.337Z,100280.55
2022-12-25T22:47:51.073Z,100276.65
2022-12-25T22:50:18.795Z,100281.75
2022-12-25T22:52:47.048Z,100284.15
2022-12-25T22:55:18.651Z,100265.90
2022-12-25T22:57:46.501Z,100264.02
2022-12-25T23:00:14.593Z,100249.95
2022-12-25T23:02:42.702Z,100232.20
2022-12-25T23:05:10.780Z,100225.31
2022-12-25T23:07:38.479Z,100223.48
2022-12-25T23:10:08.572Z,100227.20
2022-12-25T23:12:52.233Z,100225.90
2022-12-25T23:15:20.019Z,100221.80
2022-12-25T23:18:03.703Z,100238.15
2022-12-25T23:20:49.916Z,100238.52
2022-12-25T23:23:33.634Z,100230.66
2022-12-25T23:26:08.434Z,100235.16
2022-12-25T23:28:54.269Z,100237.94
2022-12-25T23:31:26.791Z,100239.80
2022-12-25T23:33:54.638Z,100239.21
2022-12-25T23:36:22.523Z,100228.02
2022-12-25T23:38:51.087Z,100223.54
2022-12-25T23:41:19.298Z,100229.36
2022-12-25T23:43:47.080Z,100232.58
2022-12-25T23:46:15.102Z,100230.81
2022-12-25T23:48:43.193Z,100225.88
2022-12-25T23:51:10.890Z,100213.73
2022-12-25T23:53:38.587Z,100209.98
2022-12-25T23:56:06.669Z,100206.83
2022-12-25T23:58:34.584Z,100202.54
